createdAt,value
2018-04-08T00:01:04.481Z,13.40
2018-04-08T00:03:32.112Z,13.87
2018-04-08T00:06:00.505Z,14.80
2018-04-08T00:08:28.884Z,13.30
2018-04-08T00:10:56.492Z,14.60
2018-04-08T00:13:24.107Z,12.90
2018-04-08T00:15:52.482Z,12.80
2018-04-08T00:18:20.068Z,12.50
2018-04-08T00:20:47.699Z,13.43
2018-04-08T00:23:16.100Z,13.20
2018-04-08T00:25:43.675Z,12.90
2018-04-08T00:28:12.235Z,13.37
2018-04-08T00:30:39.794Z,12.97
2018-04-08T00:33:07.391Z,14.00
2018-04-08T00:35:35.852Z,13.77
2018-04-08T00:38:03.427Z,14.60
2018-04-08T00:40:31.067Z,12.60
2018-04-08T00:42:58.678Z,12.90
2018-04-08T00:45:26.309Z,13.53
2018-04-08T00:47:53.916Z,13.30
2018-04-08T00:50:22.291Z,13.27
2018-04-08T00:52:50.671Z,13.03
2018-04-08T00:55:19.064Z,14.80
2018-04-08T00:57:46.710Z,12.77
2018-04-08T01:00:14.286Z,13.93
2018-04-08T01:02:41.898Z,12.73
2018-04-08T01:05:09.557Z,12.57
2018-04-08T01:07:37.136Z,13.47
2018-04-08T01:10:05.687Z,13.50
2018-04-08T01:12:33.249Z,14.10
2018-04-08T01:15:00.916Z,13.37
2018-04-08T01:17:28.473Z,14.90
2018-04-08T01:19:56.096Z,13.63
2018-04-08T01:22:23.712Z,13.50
2018-04-08T01:24:51.255Z,13.50
2018-04-08T01:27:18.830Z,13.70
2018-04-08T01:29:46.470Z,13.70
2018-04-08T01:32:14.063Z,13.07
2018-04-08T01:34:41.640Z,13.27
2018-04-08T01:37:09.970Z,13.27
2018-04-08T01:39:37.573Z,12.83
2018-04-08T01:42:05.952Z,13.17
2018-04-08T01:44:34.333Z,13.83
2018-04-08T01:47:02.690Z,13.47
2018-04-08T01:49:30.247Z,13.40
2018-04-08T01:51:57.871Z,13.53
2018-04-08T01:54:25.452Z,12.70
2018-04-08T01:56:53.108Z,12.57
2018-04-08T01:59:20.735Z,13.80
2018-04-08T02:01:48.331Z,13.50
2018-04-08T02:04:16.030Z,13.03
2018-04-08T02:06:44.440Z,13.43
2018-04-08T02:09:31.274Z,12.63
2018-04-08T02:11:58.831Z,12.90
2018-04-08T02:14:26.434Z,14.20
2018-04-08T02:16:54.082Z,12.87
2018-04-08T02:19:21.653Z,14.20
2018-04-08T02:21:49.272Z,13.60
2018-04-08T02:24:16.927Z,12.60
2018-04-08T02:26:44.537Z,14.00
2018-04-08T02:29:12.143Z,13.93
2018-04-08T02:31:39.747Z,13.87
2018-04-08T02:34:07.379Z,13.63
2018-04-08T02:36:35.245Z,14.00
2018-04-08T02:39:03.589Z,13.70
2018-04-08T02:41:31.181Z,13.70
2018-04-08T02:43:58.822Z,13.33
2018-04-08T02:46:26.473Z,13.20
2018-04-08T02:48:54.109Z,13.07
2018-04-08T02:51:21.757Z,15.20
2018-04-08T02:53:50.564Z,13.33
2018-04-08T02:56:18.172Z,13.87
2018-04-08T02:58:45.755Z,13.13
2018-04-08T03:01:13.325Z,13.70
2018-04-08T03:03:40.897Z,14.10
2018-04-08T03:06:08.518Z,13.73
2018-04-08T03:08:36.137Z,13.67
2018-04-08T03:11:04.499Z,13.80
2018-04-08T03:13:32.843Z,14.60
2018-04-08T03:16:00.459Z,14.30
2018-04-08T03:18:28.056Z,13.83
2018-04-08T03:20:55.654Z,14.43
2018-04-08T03:23:23.240Z,13.70
2018-04-08T03:25:50.840Z,13.50
2018-04-08T03:28:18.415Z,13.90
2018-04-08T03:30:46.060Z,14.10
2018-04-08T03:33:13.677Z,13.90
2018-04-08T03:35:41.287Z,14.50
2018-04-08T03:38:08.914Z,13.87
2018-04-08T03:40:36.490Z,13.73
2018-04-08T03:43:04.123Z,13.40
2018-04-08T03:45:31.714Z,14.40
2018-04-08T03:47:59.361Z,13.60
2018-04-08T03:50:26.997Z,14.03
2018-04-08T03:52:55.388Z,14.47
2018-04-08T03:55:23.031Z,13.93
2018-04-08T03:57:51.539Z,14.83
2018-04-08T04:00:19.167Z,15.23
2018-04-08T04:02:47.505Z,13.70
2018-04-08T04:05:15.130Z,15.20
2018-04-08T04:07:43.852Z,14.43
2018-04-08T04:10:11.455Z,14.40
2018-04-08T04:12:39.795Z,13.70
2018-04-08T04:15:07.409Z,13.73
2018-04-08T04:17:35.564Z,13.63
2018-04-08T04:20:15.905Z,13.47
2018-04-08T04:22:55.253Z,14.23
2018-04-08T04:28:31.103Z,17.63
2018-04-08T04:30:58.667Z,18.03
2018-04-08T04:33:26.263Z,15.70
2018-04-08T04:35:53.886Z,16.43
2018-04-08T04:38:21.462Z,15.50
2018-04-08T04:40:49.077Z,15.33
2018-04-08T04:43:16.697Z,14.23
2018-04-08T04:45:45.065Z,15.23
2018-04-08T04:48:13.450Z,15.47
2018-04-08T04:50:41.790Z,14.80
2018-04-08T04:53:09.382Z,14.27
2018-04-08T04:55:36.994Z,15.30
2018-04-08T04:58:04.655Z,15.60
2018-04-08T05:00:34.005Z,15.60
2018-04-08T05:03:02.395Z,15.18
2018-04-08T05:05:31.781Z,15.52
2018-04-08T05:08:00.166Z,15.90
2018-04-08T05:10:28.575Z,15.00
2018-04-08T05:12:56.193Z,14.32
2018-04-08T05:15:23.761Z,15.63
2018-04-08T05:17:52.105Z,15.77
2018-04-08T05:20:20.614Z,21.53
2018-04-08T05:22:48.192Z,18.50
2018-04-08T05:25:17.802Z,14.60
2018-04-08T05:33:33.846Z,13.90
2018-04-08T05:36:08.014Z,14.40
2018-04-08T05:38:35.616Z,14.10
2018-04-08T05:41:03.280Z,14.80
2018-04-08T05:43:38.167Z,17.57
2018-04-08T05:49:18.100Z,14.93
2018-04-08T05:51:45.651Z,17.80
2018-04-08T05:54:19.267Z,17.37
2018-04-08T06:02:44.751Z,14.90
2018-04-08T06:05:22.946Z,15.10
2018-04-08T06:13:36.451Z,13.80
2018-04-08T06:16:05.828Z,12.70
2018-04-08T06:18:33.458Z,15.03
2018-04-08T06:21:18.354Z,13.70
2018-04-08T06:23:53.470Z,12.90
2018-04-08T06:26:21.080Z,12.27
2018-04-08T06:28:49.412Z,13.40
2018-04-08T06:31:17.030Z,13.60
2018-04-08T06:33:44.971Z,13.10
2018-04-08T06:36:12.588Z,13.73
2018-04-08T06:38:40.233Z,13.50
2018-04-08T06:41:09.808Z,14.00
2018-04-08T06:43:38.217Z,13.57
2018-04-08T06:46:05.840Z,14.20
2018-04-08T06:48:38.919Z,14.70
2018-04-08T06:51:06.527Z,14.17
2018-04-08T06:53:34.143Z,13.83
2018-04-08T06:56:01.705Z,13.80
2018-04-08T06:58:29.312Z,13.40
2018-04-08T07:00:58.908Z,13.47
2018-04-08T07:03:26.540Z,13.50
2018-04-08T07:05:54.132Z,13.77
2018-04-08T07:08:22.985Z,13.67
2018-04-08T07:10:55.812Z,13.83
2018-04-08T07:13:26.520Z,13.13
2018-04-08T07:18:56.516Z,15.10
2018-04-08T07:24:33.603Z,13.60
2018-04-08T07:27:01.244Z,13.83
2018-04-08T07:29:28.836Z,12.63
2018-04-08T07:31:56.453Z,14.20
2018-04-08T07:34:24.038Z,12.77
2018-04-08T07:36:51.650Z,13.17
2018-04-08T07:39:19.248Z,13.40
2018-04-08T07:41:46.906Z,12.90
2018-04-08T07:44:14.485Z,12.53
2018-04-08T07:46:42.130Z,12.97
2018-04-08T07:49:09.687Z,12.40
2018-04-08T07:51:37.256Z,12.53
2018-04-08T07:54:04.921Z,12.33
2018-04-08T07:56:32.581Z,11.80
2018-04-08T07:59:00.132Z,12.03
2018-04-08T08:01:27.755Z,12.90
2018-04-08T08:03:55.400Z,11.80
2018-04-08T08:06:22.994Z,11.80
2018-04-08T08:08:51.372Z,11.00
2018-04-08T08:11:19.790Z,12.20
2018-04-08T08:13:47.975Z,11.73
2018-04-08T08:16:15.597Z,12.30
2018-04-08T08:18:43.299Z,13.00
2018-04-08T08:21:10.961Z,11.97
2018-04-08T08:23:39.027Z,12.70
2018-04-08T08:26:06.693Z,12.67
2018-04-08T08:28:34.352Z,12.47
2018-04-08T08:31:02.003Z,12.57
2018-04-08T08:33:29.665Z,12.17
2018-04-08T08:35:57.267Z,12.27
2018-04-08T08:38:25.241Z,12.97
2018-04-08T08:40:52.820Z,12.77
2018-04-08T08:43:22.052Z,12.77
2018-04-08T08:45:49.864Z,12.43
2018-04-08T08:48:17.486Z,12.20
2018-04-08T08:50:45.075Z,11.80
2018-04-08T08:53:12.733Z,12.00
2018-04-08T08:55:40.348Z,12.00
2018-04-08T08:58:08.009Z,11.90
2018-04-08T09:00:36.516Z,12.43
2018-04-08T09:03:05.111Z,12.40
2018-04-08T09:05:53.617Z,12.00
2018-04-08T09:08:21.293Z,11.70
2018-04-08T09:10:49.624Z,12.30
2018-04-08T09:13:30.340Z,12.73
2018-04-08T09:15:57.957Z,13.60
2018-04-08T09:18:25.680Z,12.87
2018-04-08T09:20:59.267Z,13.50
2018-04-08T09:26:35.431Z,13.40
2018-04-08T09:29:02.994Z,12.87
2018-04-08T09:31:30.522Z,14.07
2018-04-08T09:33:58.040Z,13.90
2018-04-08T09:36:25.643Z,15.13
2018-04-08T09:39:10.550Z,14.90
2018-04-08T09:41:38.087Z,14.40
2018-04-08T09:44:05.614Z,14.37
2018-04-08T09:46:33.153Z,15.03
2018-04-08T09:49:00.681Z,13.57
2018-04-08T09:51:29.074Z,13.67
2018-04-08T09:53:56.583Z,14.80
2018-04-08T09:56:24.888Z,14.97
2018-04-08T09:58:53.414Z,14.57
2018-04-08T10:01:26.521Z,15.50
2018-04-08T10:03:54.069Z,15.43
2018-04-08T10:06:21.668Z,14.40
2018-04-08T10:08:49.977Z,14.83
2018-04-08T10:11:17.535Z,14.83
2018-04-08T10:13:45.887Z,15.17
2018-04-08T10:16:13.430Z,16.30
2018-04-08T10:18:41.810Z,16.60
2018-04-08T10:21:10.134Z,15.77
2018-04-08T10:23:38.183Z,15.60
2018-04-08T10:26:06.715Z,16.63
2018-04-08T10:28:35.582Z,15.70
2018-04-08T10:31:03.183Z,15.77
2018-04-08T10:33:30.818Z,17.10
2018-04-08T10:35:58.421Z,17.60
2018-04-08T10:38:26.802Z,16.70
2018-04-08T10:40:54.419Z,16.60
2018-04-08T10:43:21.988Z,17.10
2018-04-08T10:45:49.637Z,16.13
2018-04-08T10:48:17.224Z,16.07
2018-04-08T10:50:45.665Z,15.70
2018-04-08T10:53:14.164Z,15.07
2018-04-08T10:55:41.798Z,15.40
2018-04-08T10:58:09.362Z,16.33
2018-04-08T11:00:36.980Z,15.30
2018-04-08T11:03:06.335Z,15.00
2018-04-08T11:05:33.910Z,15.10
2018-04-08T11:08:01.538Z,14.67
2018-04-08T11:10:29.138Z,15.93
2018-04-08T11:12:56.726Z,15.50
2018-04-08T11:15:25.049Z,15.93
2018-04-08T11:17:52.628Z,15.10
2018-04-08T11:20:20.265Z,15.27
2018-04-08T11:22:47.896Z,13.33
2018-04-08T11:25:15.502Z,14.40
2018-04-08T11:27:43.132Z,13.27
2018-04-08T11:30:10.705Z,12.73
2018-04-08T11:32:38.353Z,14.70
2018-04-08T11:35:20.572Z,14.80
2018-04-08T11:37:50.857Z,14.67
2018-04-08T11:40:19.272Z,14.73
2018-04-08T11:42:46.921Z,13.40
2018-04-08T11:45:14.516Z,12.80
2018-04-08T11:47:42.140Z,14.30
2018-04-08T11:50:21.482Z,13.90
2018-04-08T11:52:49.074Z,13.50
2018-04-08T11:55:16.676Z,14.67
2018-04-08T11:57:45.016Z,13.40
2018-04-08T12:00:12.620Z,13.40
2018-04-08T12:02:40.979Z,12.33
2018-04-08T12:05:08.560Z,13.80
2018-04-08T12:07:36.922Z,13.97
2018-04-08T12:10:05.376Z,13.43
2018-04-08T12:12:33.011Z,13.60
2018-04-08T12:15:00.733Z,14.50
2018-04-08T12:17:28.304Z,14.37
2018-04-08T12:19:56.036Z,14.10
2018-04-08T12:22:23.652Z,13.30
2018-04-08T12:24:51.282Z,13.47
2018-04-08T12:27:26.410Z,13.50
2018-04-08T12:29:54.050Z,13.10
2018-04-08T12:32:21.681Z,13.40
2018-04-08T12:35:10.231Z,12.07
2018-04-08T12:37:37.864Z,13.13
2018-04-08T12:40:06.248Z,12.43
2018-04-08T12:42:34.640Z,12.10
2018-04-08T12:45:03.032Z,13.20
2018-04-08T12:47:31.138Z,12.60
2018-04-08T12:49:58.761Z,12.93
2018-04-08T12:52:26.418Z,13.17
2018-04-08T12:54:54.099Z,12.00
2018-04-08T12:57:21.783Z,11.50
2018-04-08T12:59:49.375Z,11.87
2018-04-08T13:02:18.751Z,12.00
2018-04-08T13:07:32.956Z,11.60
2018-04-08T13:10:00.605Z,12.50
2018-04-08T13:12:28.238Z,11.63
2018-04-08T13:14:56.933Z,11.60
2018-04-08T13:17:42.812Z,11.70
2018-04-08T13:20:12.429Z,12.40
2018-04-08T13:22:40.067Z,11.57
2018-04-08T13:28:18.439Z,12.33
2018-04-08T13:30:48.785Z,12.37
2018-04-08T13:33:16.383Z,12.13
2018-04-08T13:35:44.035Z,11.27
2018-04-08T13:38:15.788Z,11.27
2018-04-08T13:40:43.381Z,11.47
2018-04-08T13:43:11.057Z,10.67
2018-04-08T13:45:38.678Z,11.33
2018-04-08T13:51:05.709Z,11.63
2018-04-08T13:56:37.654Z,9.60
2018-04-08T13:59:08.562Z,8.47
2018-04-08T14:01:36.195Z,8.50
2018-04-08T14:04:04.539Z,10.00
2018-04-08T14:06:47.601Z,9.40
2018-04-08T14:09:15.216Z,9.07
2018-04-08T14:11:53.324Z,8.70
2018-04-08T14:14:26.964Z,8.60
2018-04-08T14:17:18.884Z,10.20
2018-04-08T14:19:47.242Z,10.20
2018-04-08T14:22:14.863Z,9.63
2018-04-08T14:24:43.288Z,9.90
2018-04-08T14:27:10.872Z,9.77
2018-04-08T14:29:38.466Z,9.47
2018-04-08T14:32:06.159Z,10.40
2018-04-08T14:34:50.568Z,9.40
2018-04-08T14:37:18.195Z,9.10
2018-04-08T14:39:45.768Z,9.63
2018-04-08T14:42:13.334Z,9.30
2018-04-08T14:44:41.753Z,8.70
2018-04-08T14:47:09.333Z,7.77
2018-04-08T14:49:36.938Z,7.73
2018-04-08T14:52:04.548Z,8.63
2018-04-08T14:54:32.118Z,7.90
2018-04-08T14:56:59.747Z,8.10
2018-04-08T14:59:27.315Z,7.63
2018-04-08T15:01:54.939Z,6.73
2018-04-08T15:04:22.510Z,7.00
2018-04-08T15:06:50.112Z,6.77
2018-04-08T15:09:17.659Z,7.10
2018-04-08T15:11:45.285Z,6.20
2018-04-08T15:14:12.871Z,6.90
2018-04-08T15:16:40.458Z,6.90
2018-04-08T15:19:08.001Z,6.80
2018-04-08T15:21:35.604Z,5.83
2018-04-08T15:24:03.965Z,6.77
2018-04-08T15:26:31.612Z,6.83
2018-04-08T15:28:59.198Z,6.53
2018-04-08T15:31:40.847Z,6.80
2018-04-08T15:34:08.459Z,7.20
2018-04-08T15:36:36.806Z,6.97
2018-04-08T15:39:04.470Z,6.43
2018-04-08T15:41:32.030Z,6.00
2018-04-08T15:43:59.663Z,6.83
2018-04-08T15:46:29.195Z,7.10
2018-04-08T15:48:56.809Z,6.40
2018-04-08T15:51:24.438Z,6.60
2018-04-08T15:53:52.043Z,6.40
2018-04-08T15:56:19.666Z,6.43
2018-04-08T15:58:49.034Z,6.23
2018-04-08T16:01:16.591Z,6.37
2018-04-08T16:03:44.211Z,7.50
2018-04-08T16:06:11.795Z,5.87
2018-04-08T16:08:39.415Z,6.00
2018-04-08T16:11:07.099Z,6.03
2018-04-08T16:13:42.528Z,5.97
2018-04-08T16:16:34.691Z,6.73
2018-04-08T16:19:02.348Z,6.93
2018-04-08T16:21:29.894Z,6.80
2018-04-08T16:23:57.476Z,7.03
2018-04-08T16:26:25.102Z,6.83
2018-04-08T16:28:59.155Z,6.43
2018-04-08T16:31:26.784Z,6.50
2018-04-08T16:33:54.378Z,6.57
2018-04-08T16:36:22.003Z,7.20
2018-04-08T16:38:49.569Z,7.00
2018-04-08T16:41:17.255Z,6.70
2018-04-08T16:43:44.835Z,6.10
2018-04-08T16:46:12.469Z,6.23
2018-04-08T16:48:40.105Z,8.00
2018-04-08T16:51:07.665Z,7.63
2018-04-08T16:53:35.299Z,8.20
2018-04-08T16:56:03.636Z,8.47
2018-04-08T16:58:31.285Z,8.10
2018-04-08T17:00:58.872Z,7.53
2018-04-08T17:03:26.443Z,7.93
2018-04-08T17:05:54.012Z,7.33
2018-04-08T17:08:21.568Z,7.47
2018-04-08T17:10:49.159Z,7.27
2018-04-08T17:13:16.763Z,7.57
2018-04-08T17:15:44.415Z,7.90
2018-04-08T17:21:07.459Z,7.60
2018-04-08T17:23:35.917Z,7.73
2018-04-08T17:26:04.301Z,7.70
2018-04-08T17:28:44.177Z,7.80
2018-04-08T17:31:11.789Z,8.90
2018-04-08T17:33:41.303Z,9.33
2018-04-08T17:36:09.743Z,10.40
2018-04-08T17:38:37.375Z,10.90
2018-04-08T17:41:05.018Z,9.30
2018-04-08T17:43:33.430Z,9.87
2018-04-08T17:46:01.109Z,10.20
2018-04-08T17:48:28.752Z,8.37
2018-04-08T17:50:56.387Z,9.73
2018-04-08T17:56:23.941Z,10.00
2018-04-08T17:58:51.540Z,10.50
2018-04-08T18:01:19.137Z,10.27
2018-04-08T18:03:46.779Z,9.83
2018-04-08T18:06:14.423Z,9.60
2018-04-08T18:08:42.022Z,9.83
2018-04-08T18:11:09.584Z,9.13
2018-04-08T18:13:37.185Z,10.37
2018-04-08T18:16:04.806Z,9.67
2018-04-08T18:18:32.403Z,10.50
2018-04-08T18:21:08.437Z,10.03
2018-04-08T18:23:36.057Z,10.20
2018-04-08T18:26:04.415Z,10.50
2018-04-08T18:28:32.119Z,10.53
2018-04-08T18:30:59.777Z,10.27
2018-04-08T18:33:33.171Z,9.40
2018-04-08T18:36:00.765Z,10.40
2018-04-08T18:38:29.145Z,8.97
2018-04-08T18:41:02.847Z,8.67
2018-04-08T18:43:31.235Z,9.93
2018-04-08T18:46:07.953Z,9.17
2018-04-08T18:48:35.569Z,9.13
2018-04-08T18:51:03.196Z,8.57
2018-04-08T18:53:30.850Z,8.33
2018-04-08T18:55:58.433Z,8.53
2018-04-08T18:58:26.023Z,9.43
2018-04-08T19:00:55.351Z,9.37
2018-04-08T19:03:25.043Z,10.50
2018-04-08T19:05:52.690Z,11.23
2018-04-08T19:08:21.059Z,12.93
2018-04-08T19:10:49.448Z,11.10
2018-04-08T19:13:17.109Z,11.50
2018-04-08T19:15:44.735Z,11.70
2018-04-08T19:18:12.347Z,11.37
2018-04-08T19:20:44.956Z,12.40
2018-04-08T19:23:12.560Z,12.87
2018-04-08T19:25:40.958Z,12.20
2018-04-08T19:28:08.544Z,12.10
2018-04-08T19:30:40.821Z,12.70
2018-04-08T19:33:08.465Z,13.40
2018-04-08T19:35:36.100Z,14.30
2018-04-08T19:38:04.525Z,13.87
2018-04-08T19:40:32.198Z,14.37
2018-04-08T19:42:59.830Z,14.40
2018-04-08T19:45:50.786Z,13.70
2018-04-08T19:48:18.399Z,13.93
2018-04-08T19:50:46.074Z,13.60
2018-04-08T19:56:09.728Z,14.80
2018-04-08T19:58:37.312Z,13.90
2018-04-08T20:01:04.931Z,14.90
2018-04-08T20:03:33.418Z,15.13
2018-04-08T20:06:01.055Z,14.17
2018-04-08T20:17:10.157Z,14.60
2018-04-08T20:19:38.642Z,15.20
2018-04-08T20:22:07.115Z,15.10
2018-04-08T20:24:38.757Z,15.13
2018-04-08T20:27:06.405Z,15.90
2018-04-08T20:29:34.028Z,14.43
2018-04-08T20:32:01.642Z,14.90
2018-04-08T20:34:29.322Z,14.53
2018-04-08T20:36:57.719Z,15.30
2018-04-08T20:39:25.307Z,15.50
2018-04-08T20:41:52.948Z,14.87
2018-04-08T20:44:20.560Z,16.17
2018-04-08T20:46:48.239Z,15.10
2018-04-08T20:49:16.647Z,15.50
2018-04-08T20:51:44.323Z,14.50
2018-04-08T20:54:11.946Z,15.50
2018-04-08T20:56:40.330Z,15.50
2018-04-08T20:59:08.736Z,15.33
2018-04-08T21:01:36.343Z,15.20
2018-04-08T21:04:03.976Z,14.00
2018-04-08T21:06:31.528Z,15.87
2018-04-08T21:08:59.174Z,14.57
2018-04-08T21:11:26.786Z,15.47
2018-04-08T21:13:54.396Z,15.10
2018-04-08T21:16:21.977Z,15.37
2018-04-08T21:18:49.582Z,16.53
2018-04-08T21:21:17.156Z,14.70
2018-04-08T21:23:44.740Z,14.20
2018-04-08T21:26:12.352Z,15.00
2018-04-08T21:28:39.995Z,14.20
2018-04-08T21:31:07.571Z,14.30
2018-04-08T21:33:35.184Z,13.70
2018-04-08T21:36:02.776Z,14.90
2018-04-08T21:38:30.370Z,14.00
2018-04-08T21:40:58.715Z,13.90
2018-04-08T21:43:26.483Z,14.53
2018-04-08T21:45:54.114Z,13.70
2018-04-08T21:48:21.777Z,14.63
2018-04-08T21:50:49.378Z,14.47
2018-04-08T21:53:17.022Z,15.63
2018-04-08T21:55:44.674Z,13.57
2018-04-08T21:58:12.255Z,13.43
2018-04-08T22:00:39.908Z,13.33
2018-04-08T22:03:07.518Z,13.23
2018-04-08T22:05:35.151Z,13.37
2018-04-08T22:08:02.771Z,12.97
2018-04-08T22:10:30.368Z,13.80
2018-04-08T22:12:58.044Z,13.87
2018-04-08T22:15:26.410Z,13.90
2018-04-08T22:17:53.987Z,14.30
2018-04-08T22:20:22.360Z,14.47
2018-04-08T22:22:50.843Z,13.70
2018-04-08T22:25:19.248Z,14.10
2018-04-08T22:27:46.878Z,14.97
2018-04-08T22:30:31.957Z,13.30
2018-04-08T22:33:00.314Z,14.57
2018-04-08T22:35:28.717Z,12.93
2018-04-08T22:37:57.094Z,12.83
2018-04-08T22:40:25.493Z,14.00
2018-04-08T22:42:53.145Z,14.20
2018-04-08T22:45:20.702Z,14.60
2018-04-08T22:47:48.351Z,13.87
2018-04-08T22:50:16.708Z,13.83
2018-04-08T22:52:44.290Z,14.43
2018-04-08T22:55:12.676Z,13.37
2018-04-08T22:57:40.263Z,13.77
2018-04-08T23:00:07.862Z,14.70
2018-04-08T23:02:35.491Z,14.07
2018-04-08T23:05:03.075Z,13.80
2018-04-08T23:07:30.646Z,13.80
2018-04-08T23:09:58.273Z,14.60
2018-04-08T23:12:25.830Z,15.37
2018-04-08T23:14:53.417Z,14.30
2018-04-08T23:17:21.039Z,14.33
2018-04-08T23:19:48.635Z,14.07
2018-04-08T23:22:16.240Z,14.80
2018-04-08T23:24:43.902Z,13.13
2018-04-08T23:27:11.488Z,14.13
2018-04-08T23:29:39.098Z,13.50
2018-04-08T23:32:06.772Z,14.00
2018-04-08T23:34:35.212Z,15.10
2018-04-08T23:37:02.844Z,14.60
2018-04-08T23:39:30.436Z,14.33
2018-04-08T23:41:58.039Z,14.53
2018-04-08T23:44:26.375Z,15.57
2018-04-08T23:46:54.009Z,13.90
2018-04-08T23:49:21.595Z,14.87
2018-04-08T23:51:49.199Z,14.20
2018-04-08T23:54:17.559Z,14.30
2018-04-08T23:56:45.208Z,13.40
2018-04-08T23:59:12.885Z,13.80
